Time;durP1;ratioP1;P1;durP2;ratioP2;P2;SDS_P1;SDS_P2;PMS_P1;PMS_P2;Temp;Humidity;BMP_temperature;BMP_pressure;BME280_temperature;BME280_humidity;BME280_pressure;Samples;Min_cycle;Max_cycle;Signal;HPM_P1;HPM_P2
2022/06/04 00:00:13;;;;;;;1.60;1.40;;;21.60;45.00;;;;;;4937946;29;20036;-52
2022/06/04 00:02:45;;;;;;;2.88;1.67;;;21.60;45.00;;;;;;4938843;29;20079;-52
2022/06/04 00:05:15;;;;;;;5.70;1.60;;;21.50;45.00;;;;;;4933940;29;20043;-52
2022/06/04 00:07:45;;;;;;;3.33;1.48;;;21.50;45.10;;;;;;4934421;29;20575;-52
2022/06/04 00:15:55;;;;;;;2.42;1.58;;;21.40;45.30;;;;;;4953139;29;20040;-49
2022/06/04 00:18:23;;;;;;;3.53;2.33;;;21.30;45.10;;;;;;4950465;29;20062;-52
2022/06/04 00:20:54;;;;;;;3.15;1.77;;;21.30;45.20;;;;;;4946469;28;20050;-50
2022/06/04 00:23:21;;;;;;;5.88;2.15;;;21.30;45.40;;;;;;4945604;29;20663;-51
2022/06/04 00:25:52;;;;;;;2.08;1.70;;;21.20;45.40;;;;;;4953076;29;20086;-52
2022/06/04 00:28:25;;;;;;;3.65;1.60;;;21.20;45.80;;;;;;4950514;28;20129;-51
2022/06/04 00:30:55;;;;;;;3.22;1.77;;;21.20;45.60;;;;;;4936317;29;20035;-52
2022/06/04 00:33:22;;;;;;;1.92;1.73;;;21.10;45.50;;;;;;4946205;29;20042;-50
2022/06/04 00:35:55;;;;;;;1.90;1.80;;;21.10;45.60;;;;;;4947854;28;20075;-51
2022/06/04 00:38:24;;;;;;;1.58;1.48;;;21.00;45.90;;;;;;4943326;28;20044;-49
2022/06/04 00:40:58;;;;;;;3.28;1.55;;;21.00;45.80;;;;;;4945749;28;20114;-51
2022/06/04 00:43:25;;;;;;;1.85;1.50;;;21.00;46.00;;;;;;4947931;29;20612;-52
2022/06/04 00:45:54;;;;;;;3.67;1.85;;;20.90;45.70;;;;;;4947007;29;20051;-48
2022/06/04 00:48:26;;;;;;;1.77;1.65;;;20.90;46.00;;;;;;4946664;29;20079;-50
2022/06/04 00:50:53;;;;;;;2.80;1.70;;;20.90;46.00;;;;;;4942188;28;20054;-50
2022/06/04 00:53:20;;;;;;;2.28;1.80;;;20.90;46.00;;;;;;4950604;29;20500;-52
2022/06/04 00:56:15;;;;;;;1.60;1.50;;;20.80;45.90;;;;;;4946267;28;20448;-48
2022/06/04 00:58:58;;;;;;;3.83;2.35;;;20.80;46.40;;;;;;4935868;28;20054;-50
2022/06/04 01:01:32;;;;;;;2.20;1.42;;;20.80;46.00;;;;;;4945690;28;20084;-52
2022/06/04 01:04:08;;;;;;;2.80;1.67;;;20.70;46.20;;;;;;4936721;29;20047;-50
2022/06/04 01:06:41;;;;;;;1.67;1.33;;;20.70;46.50;;;;;;4940721;29;20047;-49
2022/06/04 01:09:20;;;;;;;4.05;1.50;;;20.60;46.30;;;;;;4933559;28;20046;-48
2022/06/04 01:12:15;;;;;;;4.28;2.42;;;20.60;46.50;;;;;;4934048;29;20119;-52
2022/06/04 01:15:11;;;;;;;3.13;1.98;;;20.60;46.50;;;;;;4933675;29;20044;-52
2022/06/04 01:17:48;;;;;;;2.10;1.63;;;20.60;46.40;;;;;;4939138;28;20043;-50
2022/06/04 01:20:28;;;;;;;1.85;1.70;;;20.60;46.50;;;;;;4945121;29;20039;-52
2022/06/04 01:23:00;;;;;;;1.80;1.67;;;20.50;46.60;;;;;;4950377;29;20072;-51
2022/06/04 01:26:09;;;;;;;2.53;1.70;;;20.50;46.90;;;;;;4943215;29;20196;-47
2022/06/04 01:28:52;;;;;;;2.53;1.90;;;20.40;47.00;;;;;;4933926;29;20047;-52
2022/06/04 01:31:31;;;;;;;3.35;2.50;;;20.40;47.00;;;;;;4933740;29;20075;-49
2022/06/04 01:34:02;;;;;;;4.93;1.90;;;20.40;46.90;;;;;;4938693;29;20044;-51
2022/06/04 01:36:44;;;;;;;3.25;2.22;;;20.40;47.60;;;;;;4941344;29;20098;-48
2022/06/04 01:39:19;;;;;;;1.75;1.50;;;20.40;47.30;;;;;;4949723;28;20557;-51
2022/06/04 01:42:02;;;;;;;2.33;2.00;;;20.40;47.00;;;;;;4948209;28;20039;-52
2022/06/04 01:44:37;;;;;;;1.80;1.70;;;20.30;47.20;;;;;;4939752;28;20606;-50
2022/06/04 01:47:07;;;;;;;3.05;2.13;;;20.30;47.30;;;;;;4941059;29;20043;-51
2022/06/04 01:49:49;;;;;;;3.80;2.33;;;20.30;47.30;;;;;;4914210;29;20050;-51
2022/06/04 01:52:35;;;;;;;5.97;2.40;;;20.20;47.60;;;;;;4934541;29;20500;-51
2022/06/04 01:55:08;;;;;;;3.65;2.05;;;20.20;47.30;;;;;;4936703;29;20040;-51
2022/06/04 01:57:51;;;;;;;2.45;1.95;;;20.20;47.30;;;;;;4936599;29;20068;-52
2022/06/04 02:00:27;;;;;;;4.20;2.25;;;20.10;47.60;;;;;;4938648;29;20039;-51
2022/06/04 02:03:05;;;;;;;3.97;2.10;;;20.10;47.60;;;;;;4940990;29;20122;-51
2022/06/04 02:05:55;;;;;;;2.80;2.30;;;20.00;47.90;;;;;;4940225;28;20062;-51
2022/06/04 02:08:48;;;;;;;2.58;2.10;;;20.00;48.20;;;;;;4950523;28;20043;-52
2022/06/04 02:11:19;;;;;;;3.10;2.05;;;19.90;48.00;;;;;;4947507;29;20048;-50
2022/06/04 02:13:49;;;;;;;2.67;2.38;;;19.90;48.10;;;;;;4932848;29;20049;-52
2022/06/04 02:16:20;;;;;;;3.22;2.47;;;19.90;48.10;;;;;;4932092;29;20447;-49
2022/06/04 02:18:49;;;;;;;2.95;2.45;;;19.80;48.40;;;;;;4932872;29;20044;-52
2022/06/04 02:21:19;;;;;;;3.17;2.67;;;19.80;48.30;;;;;;4942540;29;20056;-50
2022/06/04 02:23:47;;;;;;;3.85;2.40;;;19.80;48.30;;;;;;4945375;29;20068;-48
2022/06/04 02:26:16;;;;;;;3.70;2.78;;;19.70;48.40;;;;;;4948602;28;20043;-52
2022/06/04 02:28:50;;;;;;;2.72;2.38;;;19.70;48.50;;;;;;4946313;28;20043;-52
2022/06/04 02:31:47;;;;;;;5.68;2.35;;;19.70;48.70;;;;;;4944439;29;20039;-52
2022/06/04 02:34:35;;;;;;;5.45;2.33;;;19.70;48.80;;;;;;4949859;29;20075;-49
2022/06/04 02:37:13;;;;;;;3.50;3.17;;;19.60;49.10;;;;;;4943149;28;20050;-51
2022/06/04 02:40:06;;;;;;;2.80;2.60;;;19.50;49.00;;;;;;4940196;28;20059;-51
2022/06/04 02:43:02;;;;;;;2.60;2.40;;;19.50;49.10;;;;;;4948119;29;20051;-51
2022/06/04 02:45:44;;;;;;;4.18;3.10;;;19.40;49.20;;;;;;4942912;28;20047;-50
2022/06/04 02:48:31;;;;;;;2.85;2.65;;;19.40;49.10;;;;;;4951467;29;20043;-48
2022/06/04 02:51:05;;;;;;;3.30;2.42;;;19.40;49.40;;;;;;4936942;29;20111;-50
2022/06/04 02:53:33;;;;;;;2.70;2.50;;;19.30;49.40;;;;;;4943456;29;20086;-48
2022/06/04 02:56:07;;;;;;;3.75;2.88;;;19.20;49.20;;;;;;4943559;29;20039;-50
2022/06/04 02:58:35;;;;;;;3.60;2.42;;;19.20;49.60;;;;;;4935016;29;20043;-51
2022/06/04 03:01:08;;;;;;;3.30;3.00;;;19.10;49.50;;;;;;4942247;28;20039;-50
2022/06/04 03:03:38;;;;;;;5.00;2.65;;;19.00;49.50;;;;;;4944905;29;20141;-52
2022/06/04 03:06:24;;;;;;;4.00;2.80;;;19.00;49.60;;;;;;4957167;28;20072;-48
2022/06/04 03:08:52;;;;;;;4.82;2.85;;;19.10;50.00;;;;;;4940817;28;20051;-52
2022/06/04 03:11:22;;;;;;;2.85;2.28;;;19.00;49.70;;;;;;4950448;28;20078;-50
2022/06/04 03:13:52;;;;;;;2.97;2.38;;;18.90;49.80;;;;;;4952278;29;20476;-49
2022/06/04 03:16:19;;;;;;;3.13;2.92;;;18.80;49.90;;;;;;4946020;29;20500;-49
2022/06/04 03:18:48;;;;;;;3.45;3.20;;;18.90;49.90;;;;;;4936646;29;20245;-51
2022/06/04 03:21:18;;;;;;;5.32;2.72;;;18.80;50.70;;;;;;4944453;28;20066;-51
2022/06/04 03:23:47;;;;;;;2.90;2.60;;;18.70;50.00;;;;;;4936371;28;20098;-49
2022/06/04 03:26:16;;;;;;;3.30;2.55;;;18.80;50.00;;;;;;4937107;29;20047;-50
2022/06/04 03:28:43;;;;;;;6.32;3.10;;;18.70;50.20;;;;;;4940377;28;20047;-52
2022/06/04 03:31:09;;;;;;;3.53;3.05;;;18.60;50.10;;;;;;4939889;29;20044;-48
2022/06/04 03:33:37;;;;;;;2.67;2.30;;;18.60;50.30;;;;;;4939261;29;20050;-52
2022/06/04 03:36:04;;;;;;;3.78;2.83;;;18.60;50.30;;;;;;4945497;28;20106;-52
2022/06/04 03:38:31;;;;;;;4.65;2.85;;;18.50;50.40;;;;;;4950165;29;20107;-51
2022/06/04 03:40:58;;;;;;;3.45;2.58;;;18.50;50.50;;;;;;4947331;29;20072;-52
2022/06/04 03:43:25;;;;;;;2.63;2.42;;;18.60;50.60;;;;;;4949701;29;20074;-48
2022/06/04 03:45:55;;;;;;;2.92;2.42;;;18.50;50.60;;;;;;4948571;29;20062;-51
2022/06/04 03:48:22;;;;;;;3.38;2.75;;;18.50;50.70;;;;;;4966210;28;20047;-51
2022/06/04 03:50:52;;;;;;;4.45;2.83;;;18.50;50.70;;;;;;4944772;28;20043;-52
2022/06/04 03:53:25;;;;;;;4.78;2.53;;;18.50;50.70;;;;;;4947430;29;20043;-50
2022/06/04 03:55:53;;;;;;;3.17;2.88;;;18.50;51.00;;;;;;4944323;29;20039;-52
2022/06/04 03:58:29;;;;;;;2.60;2.40;;;18.50;50.80;;;;;;4951928;29;20046;-50
2022/06/04 04:01:00;;;;;;;4.13;2.55;;;18.50;50.80;;;;;;4935473;29;20107;-48
2022/06/04 04:03:27;;;;;;;2.35;2.20;;;18.50;51.00;;;;;;4940926;29;20499;-51
2022/06/04 04:05:59;;;;;;;2.53;2.33;;;18.40;50.80;;;;;;4942911;29;20122;-52
2022/06/04 04:08:26;;;;;;;2.78;2.58;;;18.40;50.90;;;;;;4947318;29;20051;-48
2022/06/04 04:10:57;;;;;;;2.45;2.13;;;18.50;51.10;;;;;;4952009;28;20104;-51
2022/06/04 04:13:28;;;;;;;2.75;2.55;;;18.50;51.10;;;;;;4945382;29;20039;-51
2022/06/04 04:15:56;;;;;;;3.10;2.72;;;18.40;51.00;;;;;;4942518;29;20413;-52
2022/06/04 04:18:25;;;;;;;4.07;2.80;;;18.40;51.10;;;;;;4947038;29;20043;-50
2022/06/04 04:20:52;;;;;;;3.45;2.45;;;18.50;51.20;;;;;;4954603;28;20384;-50
2022/06/04 04:23:21;;;;;;;3.50;2.78;;;18.50;51.30;;;;;;4941655;29;20051;-48
2022/06/04 04:25:47;;;;;;;4.18;3.00;;;18.50;51.40;;;;;;4935841;29;20043;-51
2022/06/04 04:28:14;;;;;;;5.07;3.50;;;18.50;51.50;;;;;;4935285;29;20106;-49
2022/06/04 04:30:45;;;;;;;2.65;2.38;;;18.50;51.50;;;;;;4935420;29;20043;-52
2022/06/04 04:33:15;;;;;;;2.92;2.58;;;18.50;51.50;;;;;;4938164;29;20071;-49
2022/06/04 04:35:43;;;;;;;4.25;3.28;;;18.50;51.50;;;;;;4940015;29;20039;-52
2022/06/04 04:38:12;;;;;;;3.53;2.80;;;18.50;51.60;;;;;;4951618;29;20039;-51
2022/06/04 04:40:45;;;;;;;2.85;2.45;;;18.50;51.60;;;;;;4947780;28;20035;-50
2022/06/04 04:43:16;;;;;;;6.63;3.15;;;18.50;51.90;;;;;;4951123;28;20046;-52
2022/06/04 04:45:43;;;;;;;3.58;3.25;;;18.60;51.70;;;;;;4946033;29;20152;-52
2022/06/04 04:48:11;;;;;;;3.70;3.17;;;18.60;51.70;;;;;;4954549;29;20145;-52
2022/06/04 04:50:45;;;;;;;3.63;3.05;;;18.60;51.70;;;;;;4951039;28;20074;-48
2022/06/04 04:53:12;;;;;;;4.65;2.85;;;18.60;51.70;;;;;;4949836;28;20399;-51
2022/06/04 04:55:46;;;;;;;3.10;2.80;;;18.70;51.60;;;;;;4940662;29;20043;-52
2022/06/04 04:58:14;;;;;;;3.63;3.20;;;18.70;52.00;;;;;;4935075;29;20504;-50
2022/06/04 05:00:42;;;;;;;4.07;3.10;;;18.70;51.70;;;;;;4944654;29;20046;-50
2022/06/04 05:03:19;;;;;;;4.05;3.22;;;18.70;51.90;;;;;;4947054;28;20043;-51
2022/06/04 05:05:55;;;;;;;4.20;3.28;;;18.70;51.70;;;;;;4933905;28;20070;-52
2022/06/04 05:08:24;;;;;;;4.30;3.42;;;18.80;51.70;;;;;;4939857;29;20598;-51
2022/06/04 05:10:51;;;;;;;3.60;3.30;;;18.70;51.90;;;;;;4942872;29;20043;-51
2022/06/04 05:13:20;;;;;;;5.30;3.38;;;18.80;51.80;;;;;;4943494;29;20083;-51
2022/06/04 05:15:48;;;;;;;4.35;3.17;;;18.80;52.00;;;;;;4952540;28;20130;-52
2022/06/04 05:18:20;;;;;;;5.18;4.68;;;18.80;52.10;;;;;;4950794;29;20530;-52
2022/06/04 05:20:47;;;;;;;6.57;4.38;;;18.90;51.90;;;;;;4947249;28;20050;-52
2022/06/04 05:23:14;;;;;;;5.47;3.28;;;18.90;51.90;;;;;;4937380;29;20065;-49
2022/06/04 05:25:44;;;;;;;4.03;3.25;;;19.00;52.00;;;;;;4933037;29;20056;-49
2022/06/04 05:28:14;;;;;;;3.85;3.17;;;19.00;52.00;;;;;;4937853;29;20733;-52
2022/06/04 05:30:40;;;;;;;3.85;3.13;;;19.00;52.00;;;;;;4936681;29;20040;-48
2022/06/04 05:33:08;;;;;;;5.50;3.60;;;19.10;52.30;;;;;;4934306;29;20040;-52
2022/06/04 05:35:35;;;;;;;3.58;3.28;;;19.10;52.00;;;;;;4931224;29;20047;-52
2022/06/04 05:38:01;;;;;;;8.32;3.72;;;19.20;52.40;;;;;;4936434;29;20047;-51
2022/06/04 05:40:33;;;;;;;4.15;3.75;;;19.20;51.90;;;;;;4943697;28;20035;-50
2022/06/04 05:43:06;;;;;;;3.97;3.58;;;19.20;52.00;;;;;;4949857;28;20043;-52
2022/06/04 05:45:35;;;;;;;4.97;3.65;;;19.30;52.00;;;;;;4944169;29;20043;-50
2022/06/04 05:48:02;;;;;;;4.63;3.97;;;19.30;52.00;;;;;;4947099;29;20526;-48
2022/06/04 05:50:34;;;;;;;4.65;3.55;;;19.40;51.90;;;;;;4941800;28;20040;-49
2022/06/04 05:53:05;;;;;;;4.18;3.60;;;19.50;52.00;;;;;;4949099;28;20039;-51
2022/06/04 05:55:37;;;;;;;6.35;4.00;;;19.50;51.80;;;;;;4949456;29;20039;-51
2022/06/04 05:58:04;;;;;;;4.88;3.65;;;19.60;51.90;;;;;;4948004;29;20043;-52
2022/06/04 06:00:30;;;;;;;3.83;3.58;;;19.70;51.50;;;;;;4944714;29;20086;-49
2022/06/04 06:03:02;;;;;;;3.95;3.65;;;19.70;51.40;;;;;;4941628;28;20480;-52
2022/06/04 06:05:34;;;;;;;4.30;3.78;;;19.80;51.60;;;;;;4941681;29;20051;-49
2022/06/04 06:08:01;;;;;;;7.20;3.90;;;19.80;51.50;;;;;;4948349;29;20090;-50
2022/06/04 06:10:27;;;;;;;4.18;3.40;;;19.80;51.60;;;;;;4944838;28;20051;-52
2022/06/04 06:12:54;;;;;;;4.32;4.03;;;19.90;51.50;;;;;;4952842;29;20071;-52
2022/06/04 06:15:21;;;;;;;3.63;3.30;;;19.90;51.40;;;;;;4948540;29;20129;-51
2022/06/04 06:17:50;;;;;;;4.85;3.45;;;20.00;51.40;;;;;;4942781;29;20090;-52
2022/06/04 06:20:19;;;;;;;5.45;3.95;;;20.00;51.30;;;;;;4944694;28;20065;-49
2022/06/04 06:22:47;;;;;;;4.78;4.22;;;20.10;51.30;;;;;;4946236;28;20050;-52
2022/06/04 06:25:16;;;;;;;4.28;3.80;;;20.10;51.20;;;;;;4939052;29;20040;-48
2022/06/04 06:27:47;;;;;;;5.75;4.15;;;20.10;51.20;;;;;;4944237;28;20047;-51
2022/06/04 06:30:14;;;;;;;4.38;3.97;;;20.20;51.10;;;;;;4949162;28;20047;-52
2022/06/04 06:32:44;;;;;;;5.15;3.95;;;20.20;51.10;;;;;;4952798;29;20047;-51
2022/06/04 06:35:11;;;;;;;5.32;4.05;;;20.20;51.10;;;;;;4943632;29;20044;-50
2022/06/04 06:37:38;;;;;;;5.55;3.85;;;20.30;51.40;;;;;;4931548;29;20043;-54
2022/06/04 06:40:11;;;;;;;4.30;3.90;;;20.30;51.10;;;;;;4932617;29;20087;-54
2022/06/04 06:42:37;;;;;;;5.07;4.10;;;20.30;51.30;;;;;;4935120;29;20107;-52
2022/06/04 06:45:07;;;;;;;4.45;4.00;;;20.40;51.30;;;;;;4932227;29;20131;-54
2022/06/04 06:47:35;;;;;;;4.38;3.97;;;20.40;51.30;;;;;;4944320;29;20439;-53
2022/06/04 06:50:04;;;;;;;4.95;3.88;;;20.50;51.40;;;;;;4951915;28;20051;-50
2022/06/04 06:52:31;;;;;;;4.45;4.05;;;20.50;51.20;;;;;;4941867;29;20102;-51
2022/06/04 06:55:00;;;;;;;4.90;4.07;;;20.60;51.00;;;;;;4943742;29;20032;-54
2022/06/04 06:57:30;;;;;;;6.25;3.97;;;20.60;51.10;;;;;;4944003;28;20578;-54
2022/06/04 07:00:01;;;;;;;5.20;4.50;;;20.70;50.70;;;;;;4939352;29;20044;-53
2022/06/04 07:02:28;;;;;;;4.78;3.80;;;20.70;50.70;;;;;;4941439;28;20051;-52
2022/06/04 07:05:00;;;;;;;4.88;4.38;;;20.80;50.70;;;;;;4946191;29;20032;-54
2022/06/04 07:07:29;;;;;;;5.78;4.15;;;20.80;50.50;;;;;;4947960;29;20495;-54
2022/06/04 07:09:58;;;;;;;4.72;3.78;;;20.80;50.60;;;;;;4970748;28;20039;-54
2022/06/04 07:12:27;;;;;;;5.95;3.58;;;20.80;50.80;;;;;;4949107;29;20500;-51
2022/06/04 07:14:54;;;;;;;5.75;4.10;;;20.90;51.00;;;;;;4946900;29;20411;-53
2022/06/04 07:17:23;;;;;;;4.65;4.13;;;20.90;50.70;;;;;;4955799;29;20055;-54
2022/06/04 07:19:50;;;;;;;4.60;3.90;;;20.90;50.90;;;;;;4953342;28;20062;-50
2022/06/04 07:22:19;;;;;;;4.72;4.15;;;20.90;51.40;;;;;;4948850;29;20043;-54
2022/06/04 07:24:46;;;;;;;4.35;3.80;;;21.00;50.50;;;;;;4943802;29;20036;-53
2022/06/04 07:27:13;;;;;;;8.38;4.55;;;21.00;50.90;;;;;;4936491;29;20743;-52
2022/06/04 07:29:39;;;;;;;6.03;4.10;;;21.00;50.40;;;;;;4939041;29;20035;-53
2022/06/04 07:32:10;;;;;;;6.00;3.97;;;21.00;50.50;;;;;;4945692;29;20043;-53
2022/06/04 07:34:45;;;;;;;3.88;3.47;;;21.10;50.70;;;;;;4940023;29;20043;-52
2022/06/04 07:37:12;;;;;;;5.28;4.03;;;21.10;50.40;;;;;;4953022;28;20400;-50
2022/06/04 07:39:40;;;;;;;5.28;3.95;;;21.00;50.40;;;;;;4941655;28;20043;-50
2022/06/04 07:42:07;;;;;;;6.13;4.20;;;21.10;50.30;;;;;;4936370;29;20062;-53
2022/06/04 07:44:37;;;;;;;5.55;4.47;;;21.10;50.40;;;;;;4943591;28;20055;-52
2022/06/04 07:47:04;;;;;;;5.45;4.38;;;21.20;50.40;;;;;;4935904;29;20099;-51
2022/06/04 07:49:32;;;;;;;6.18;3.88;;;21.20;50.30;;;;;;4944083;29;20050;-54
2022/06/04 07:52:00;;;;;;;5.63;3.63;;;21.20;50.50;;;;;;4947140;28;20324;-54
2022/06/04 07:54:30;;;;;;;5.10;4.63;;;21.30;50.70;;;;;;4955128;28;20043;-53
2022/06/04 07:56:57;;;;;;;4.20;3.88;;;21.30;50.50;;;;;;4943212;28;20039;-53
2022/06/04 07:59:26;;;;;;;5.55;4.40;;;21.40;50.40;;;;;;4943020;28;20051;-52
2022/06/04 08:01:53;;;;;;;4.60;4.20;;;21.50;50.40;;;;;;4936581;28;20058;-51
2022/06/04 08:04:24;;;;;;;4.63;4.28;;;21.50;49.90;;;;;;4952956;29;20051;-54
2022/06/04 08:06:56;;;;;;;5.78;4.70;;;21.60;49.80;;;;;;4953741;28;20051;-54
2022/06/04 08:09:24;;;;;;;5.78;4.35;;;21.70;50.40;;;;;;4940164;29;20052;-52
2022/06/04 08:11:50;;;;;;;6.05;4.35;;;21.80;50.10;;;;;;4943494;28;20048;-55
2022/06/04 08:14:23;;;;;;;5.85;4.35;;;21.90;50.00;;;;;;4952516;28;20113;-50
2022/06/04 08:16:58;;;;;;;4.82;4.32;;;21.90;50.00;;;;;;4949287;29;20047;-53
2022/06/04 08:19:32;;;;;;;4.63;4.13;;;22.00;49.80;;;;;;4945787;29;20042;-54
2022/06/04 08:21:59;;;;;;;7.57;4.55;;;22.10;49.50;;;;;;4946435;29;20035;-55
2022/06/04 08:24:31;;;;;;;6.40;5.13;;;22.20;49.40;;;;;;4935630;29;20428;-54
2022/06/04 08:27:02;;;;;;;5.97;4.50;;;22.20;49.10;;;;;;4939847;29;20073;-51
2022/06/04 08:29:34;;;;;;;5.15;4.50;;;22.30;48.70;;;;;;4946760;28;20055;-54
2022/06/04 08:32:09;;;;;;;5.95;4.15;;;22.30;48.80;;;;;;4951170;28;20047;-52
2022/06/04 08:34:36;;;;;;;6.00;4.40;;;22.40;49.00;;;;;;4968846;28;20074;-54
2022/06/04 08:37:06;;;;;;;4.82;4.30;;;22.50;48.70;;;;;;4946537;28;20039;-52
2022/06/04 08:39:37;;;;;;;6.03;4.30;;;22.40;48.60;;;;;;4945629;29;20094;-53
2022/06/04 08:42:10;;;;;;;5.78;4.57;;;22.50;48.50;;;;;;4954481;28;20499;-52
2022/06/04 08:44:42;;;;;;;7.30;5.07;;;22.40;48.30;;;;;;4945197;28;20100;-52
2022/06/04 08:47:26;;;;;;;6.38;5.13;;;22.40;48.60;;;;;;4939329;29;20122;-54
2022/06/04 08:50:06;;;;;;;5.20;4.63;;;22.40;48.70;;;;;;4934270;29;20051;-53
2022/06/04 08:52:48;;;;;;;6.10;4.95;;;22.40;48.70;;;;;;4936005;29;20621;-51
2022/06/04 08:58:38;;;;;;;4.93;4.45;;;22.30;48.70;;;;;;4947371;29;20035;-53
2022/06/04 09:01:31;;;;;;;5.60;5.10;;;22.40;48.80;;;;;;4934696;29;20122;-54
2022/06/04 09:04:15;;;;;;;5.15;4.65;;;22.40;48.80;;;;;;4938637;29;20050;-54
2022/06/04 09:06:48;;;;;;;5.50;5.00;;;22.40;48.70;;;;;;4943531;28;20035;-51
2022/06/04 09:09:22;;;;;;;6.35;4.82;;;22.40;48.60;;;;;;4946044;28;20043;-52
2022/06/04 09:12:10;;;;;;;7.63;5.07;;;22.50;48.80;;;;;;4953764;29;20591;-50
2022/06/04 09:15:14;;;;;;;6.70;5.30;;;22.50;49.10;;;;;;4941245;29;20067;-54
2022/06/04 09:17:50;;;;;;;6.03;4.85;;;22.60;49.00;;;;;;4941220;28;20035;-54
2022/06/04 09:20:38;;;;;;;5.78;5.18;;;22.70;48.90;;;;;;4934619;29;20067;-50
2022/06/04 09:23:23;;;;;;;5.65;5.13;;;22.80;48.80;;;;;;4945041;29;20054;-54
2022/06/04 09:26:31;;;;;;;6.72;5.05;;;22.80;48.40;;;;;;4946586;28;20048;-53
2022/06/04 09:29:24;;;;;;;5.60;5.03;;;22.90;48.30;;;;;;4902495;29;20138;-54
2022/06/04 09:32:07;;;;;;;6.82;5.03;;;23.00;48.90;;;;;;4946471;29;20048;-54
2022/06/04 09:34:47;;;;;;;8.52;5.22;;;23.10;48.80;;;;;;4929314;29;20035;-52
2022/06/04 09:37:16;;;;;;;6.63;5.20;;;23.10;48.40;;;;;;4943528;29;20067;-52
2022/06/04 09:39:47;;;;;;;7.53;6.35;;;23.10;48.30;;;;;;4951602;28;20046;-53
2022/06/04 09:42:13;;;;;;;5.80;5.20;;;23.10;47.90;;;;;;4949708;28;20070;-51
2022/06/04 09:45:03;;;;;;;8.02;5.65;;;23.20;48.40;;;;;;4945113;28;20086;-52
2022/06/04 09:47:54;;;;;;;6.35;5.65;;;23.20;48.50;;;;;;4953182;29;20106;-52
2022/06/04 09:50:31;;;;;;;7.40;5.18;;;23.20;48.00;;;;;;4941144;28;20780;-53
2022/06/04 09:53:04;;;;;;;7.65;4.97;;;23.20;47.90;;;;;;4942985;29;20051;-48
2022/06/04 09:55:35;;;;;;;8.48;5.70;;;23.10;48.30;;;;;;4933579;29;20047;-52
2022/06/04 09:58:06;;;;;;;7.00;5.93;;;23.10;48.20;;;;;;4934029;29;20082;-51
2022/06/04 10:00:39;;;;;;;6.82;5.82;;;23.00;48.50;;;;;;4937393;29;20126;-52
2022/06/04 10:03:21;;;;;;;6.90;6.30;;;23.10;48.70;;;;;;4945518;29;20050;-51
2022/06/04 10:05:53;;;;;;;7.85;6.45;;;23.00;48.60;;;;;;4939506;28;20047;-52
2022/06/04 10:08:29;;;;;;;5.85;5.30;;;23.00;48.50;;;;;;4953411;28;20599;-51
2022/06/04 10:11:05;;;;;;;8.90;5.55;;;23.00;49.10;;;;;;4942662;29;20090;-52
2022/06/04 10:13:45;;;;;;;6.30;5.07;;;23.00;49.70;;;;;;4944487;29;20423;-52
2022/06/04 10:16:31;;;;;;;8.48;5.50;;;23.00;49.40;;;;;;4952031;28;20035;-52
2022/06/04 10:19:12;;;;;;;6.60;5.85;;;23.00;49.10;;;;;;4949402;28;20111;-50
2022/06/04 10:21:41;;;;;;;7.13;6.43;;;23.10;49.70;;;;;;4938305;29;20035;-52
2022/06/04 10:24:47;;;;;;;7.03;6.07;;;23.10;49.20;;;;;;4945049;28;20491;-49
2022/06/04 10:27:32;;;;;;;7.80;6.40;;;23.10;48.90;;;;;;4941063;28;20063;-49
2022/06/04 10:30:20;;;;;;;6.72;6.05;;;23.20;49.30;;;;;;4938048;29;20119;-47
2022/06/04 10:33:05;;;;;;;6.75;6.05;;;23.20;48.90;;;;;;4935281;28;20044;-52
2022/06/04 10:35:53;;;;;;;6.70;5.65;;;23.30;48.80;;;;;;4930854;29;20084;-52
2022/06/04 10:38:43;;;;;;;7.25;5.47;;;23.30;48.90;;;;;;4942094;29;20455;-49
2022/06/04 10:41:35;;;;;;;8.45;6.22;;;23.40;49.00;;;;;;4944689;29;20086;-52
2022/06/04 10:44:25;;;;;;;6.25;5.65;;;23.40;48.30;;;;;;4949131;29;20051;-51
2022/06/04 10:47:31;;;;;;;9.40;5.93;;;23.50;48.40;;;;;;4931089;29;20126;-53
2022/06/04 10:50:13;;;;;;;6.50;5.50;;;23.50;48.20;;;;;;4912146;29;20055;-51
2022/06/04 10:52:49;;;;;;;8.30;6.90;;;23.60;47.80;;;;;;4938222;29;20530;-51
2022/06/04 10:55:40;;;;;;;7.05;5.78;;;23.70;47.50;;;;;;4962065;28;20039;-50
2022/06/04 10:58:40;;;;;;;6.15;5.45;;;23.70;47.70;;;;;;4930226;29;20563;-52
2022/06/04 11:01:11;;;;;;;9.07;6.45;;;23.80;47.60;;;;;;4928665;29;20531;-52
2022/06/04 11:03:48;;;;;;;7.15;6.45;;;23.80;47.50;;;;;;4936298;29;20046;-52
2022/06/04 11:06:32;;;;;;;7.18;6.47;;;23.80;47.50;;;;;;4944438;29;20036;-52
2022/06/04 11:09:16;;;;;;;6.95;6.30;;;23.90;47.20;;;;;;4944171;28;20043;-49
2022/06/04 11:11:55;;;;;;;6.80;6.13;;;23.90;47.60;;;;;;4914380;29;20496;-50
2022/06/04 11:14:40;;;;;;;;;;;;;;;;;;;;;
2022/06/04 11:17:56;;;;;;;9.00;6.07;;;24.10;48.10;;;;;;4948200;29;20040;-49
2022/06/04 11:20:26;;;;;;;7.15;5.95;;;24.10;47.50;;;;;;4897018;29;20529;-49
2022/06/04 11:23:14;;;;;;;8.80;6.38;;;24.20;47.50;;;;;;4952205;29;20047;-50
2022/06/04 11:25:46;;;;;;;7.10;6.43;;;24.30;47.60;;;;;;4940516;29;20121;-51
2022/06/04 11:28:24;;;;;;;6.93;5.30;;;24.40;47.90;;;;;;4938846;29;20051;-48
2022/06/04 11:30:57;;;;;;;6.82;6.10;;;24.50;48.50;;;;;;4952089;28;20051;-51
2022/06/04 11:33:37;;;;;;;8.15;7.35;;;24.70;47.80;;;;;;4948952;29;20040;-50
2022/06/04 11:36:12;;;;;;;7.00;6.30;;;24.80;47.50;;;;;;4931093;29;20073;-53
2022/06/04 11:38:45;;;;;;;7.10;5.88;;;25.10;46.90;;;;;;4931500;29;20068;-52
2022/06/04 11:41:29;;;;;;;9.13;6.85;;;25.30;47.10;;;;;;4934609;29;20117;-52
2022/06/04 11:44:24;;;;;;;6.80;6.13;;;25.50;46.60;;;;;;4940106;29;20044;-52
2022/06/04 11:47:27;;;;;;;7.60;5.90;;;25.70;46.30;;;;;;4943463;29;20075;-52
2022/06/04 11:50:03;;;;;;;6.28;5.68;;;26.00;46.60;;;;;;4917697;29;20416;-50
2022/06/04 11:52:33;;;;;;;6.65;5.55;;;26.30;46.10;;;;;;4939262;29;20078;-48
2022/06/04 11:55:22;;;;;;;7.30;5.87;;;26.50;46.00;;;;;;4959346;28;20043;-53
2022/06/04 11:58:19;;;;;;;6.32;5.72;;;26.70;45.80;;;;;;4930111;29;20031;-49
2022/06/04 12:00:49;;;;;;;6.60;5.85;;;27.00;44.90;;;;;;4941021;29;20118;-51
2022/06/04 12:03:32;;;;;;;9.10;6.47;;;27.10;44.70;;;;;;4937785;29;20079;-51
2022/06/04 12:06:02;;;;;;;12.13;6.10;;;27.20;44.00;;;;;;4943048;29;20058;-52
2022/06/04 12:08:39;;;;;;;7.38;5.95;;;27.30;44.00;;;;;;4935934;29;20040;-50
2022/06/04 12:11:26;;;;;;;9.40;6.78;;;27.40;44.00;;;;;;4939582;29;20039;-53
2022/06/04 12:14:28;;;;;;;9.52;5.88;;;27.50;43.20;;;;;;4939586;29;20044;-52
2022/06/04 12:17:13;;;;;;;6.20;5.60;;;27.60;43.30;;;;;;4918186;29;20052;-51
2022/06/04 12:25:47;;;;;;;7.97;6.37;;;27.60;43.20;;;;;;4941017;29;20050;-53
2022/06/04 12:28:26;;;;;;;7.43;6.30;;;27.60;43.00;;;;;;4955068;29;20130;-52
2022/06/04 12:30:55;;;;;;;8.45;6.75;;;27.60;43.10;;;;;;4945964;29;20118;-52
2022/06/04 12:33:35;;;;;;;9.93;5.65;;;27.50;43.30;;;;;;4943760;29;20102;-53
2022/06/04 12:36:22;;;;;;;9.38;6.65;;;27.50;43.70;;;;;;4941673;28;20599;-51
2022/06/04 12:39:19;;;;;;;7.75;5.95;;;27.50;43.80;;;;;;4945731;28;20041;-50
2022/06/04 12:41:57;;;;;;;8.43;5.70;;;27.50;43.40;;;;;;4942099;28;20055;-50
2022/06/04 12:44:33;;;;;;;10.65;6.60;;;27.60;44.00;;;;;;4946543;28;20098;-53
2022/06/04 12:47:19;;;;;;;6.80;6.10;;;27.70;43.30;;;;;;4954307;29;20047;-53
2022/06/04 12:49:54;;;;;;;8.73;6.10;;;27.80;43.70;;;;;;4945684;28;20043;-52
2022/06/04 12:52:57;;;;;;;7.50;6.03;;;27.80;43.20;;;;;;4944067;28;20542;-53
2022/06/04 12:55:49;;;;;;;6.65;6.00;;;28.00;43.20;;;;;;4950954;28;20047;-51
2022/06/04 12:58:39;;;;;;;5.53;5.03;;;28.10;43.00;;;;;;4940628;29;20039;-53
2022/06/04 13:01:18;;;;;;;6.22;5.63;;;28.20;43.00;;;;;;4941107;29;20077;-53
2022/06/04 13:04:01;;;;;;;5.95;5.40;;;28.40;43.00;;;;;;4945448;29;20043;-53
2022/06/04 13:06:32;;;;;;;7.10;6.40;;;28.50;42.90;;;;;;4951696;29;20047;-51
2022/06/04 13:09:34;;;;;;;5.85;5.30;;;28.60;42.10;;;;;;4945722;28;20070;-53
2022/06/04 13:12:03;;;;;;;7.50;6.10;;;28.70;42.00;;;;;;4929376;29;20075;-53
2022/06/04 13:14:54;;;;;;;6.20;5.70;;;28.90;41.60;;;;;;4933927;29;20043;-51
2022/06/04 13:17:42;;;;;;;5.80;5.20;;;29.00;41.60;;;;;;4936881;28;20046;-51
2022/06/04 13:20:34;;;;;;;5.53;5.03;;;29.20;41.70;;;;;;4935026;29;20451;-53
2022/06/04 13:23:23;;;;;;;5.28;4.88;;;29.40;41.40;;;;;;4934367;29;20503;-53
2022/06/04 13:25:53;;;;;;;4.82;4.13;;;29.60;40.80;;;;;;4944275;29;20050;-52
2022/06/04 13:28:43;;;;;;;5.50;4.88;;;29.90;40.80;;;;;;4940628;29;20051;-53
2022/06/04 13:31:23;;;;;;;6.38;5.13;;;30.30;40.80;;;;;;4934420;29;20039;-53
2022/06/04 13:33:52;;;;;;;4.47;3.80;;;31.00;40.30;;;;;;4934864;29;20086;-53
2022/06/04 13:36:27;;;;;;;6.40;4.40;;;31.80;41.00;;;;;;4942331;28;20036;-53
2022/06/04 13:39:00;;;;;;;4.68;4.15;;;32.80;39.60;;;;;;4945833;29;20040;-52
2022/06/04 13:44:51;;;;;;;3.85;3.35;;;35.10;37.90;;;;;;4947159;29;20035;-53
2022/06/04 13:47:21;;;;;;;4.90;3.70;;;36.40;36.50;;;;;;4940406;28;20047;-53